sensor_id;sensor_type;location;lat;lon;timestamp;temperature;humidity
72320;SHT30;60269;52.502;16.732;2023-03-01T00:02:31;-4.41;96.46
72320;SHT30;60269;52.502;16.732;2023-03-01T00:06:04;-4.43;96.38
72320;SHT30;60269;52.502;16.732;2023-03-01T00:09:37;-4.73;98.57
72320;SHT30;60269;52.502;16.732;2023-03-01T00:13:10;-5.08;99.38
72320;SHT30;60269;52.502;16.732;2023-03-01T00:16:43;-5.39;99.99
72320;SHT30;60269;52.502;16.732;2023-03-01T00:20:16;-5.28;99.99
72320;SHT30;60269;52.502;16.732;2023-03-01T00:23:48;-5.22;99.99
72320;SHT30;60269;52.502;16.732;2023-03-01T00:27:21;-4.97;99.99
72320;SHT30;60269;52.502;16.732;2023-03-01T00:30:53;-4.87;99.96
72320;SHT30;60269;52.502;16.732;2023-03-01T00:34:25;-4.95;99.99
72320;SHT30;60269;52.502;16.732;2023-03-01T00:37:57;-4.93;99.99
72320;SHT30;60269;52.502;16.732;2023-03-01T00:41:29;-4.69;99.47
72320;SHT30;60269;52.502;16.732;2023-03-01T00:45:02;-4.74;98.66
72320;SHT30;60269;52.502;16.732;2023-03-01T00:48:34;-4.88;99.64
72320;SHT30;60269;52.502;16.732;2023-03-01T00:52:07;-4.97;99.60
72320;SHT30;60269;52.502;16.732;2023-03-01T00:55:39;-5.15;99.99
72320;SHT30;60269;52.502;16.732;2023-03-01T00:59:12;-5.42;99.99
72320;SHT30;60269;52.502;16.732;2023-03-01T01:02:44;-5.60;99.99
72320;SHT30;60269;52.502;16.732;2023-03-01T01:06:34;-5.93;99.99
72320;SHT30;60269;52.502;16.732;2023-03-01T01:10:07;-5.80;99.99
72320;SHT30;60269;52.502;16.732;2023-03-01T01:13:40;-5.33;99.77
72320;SHT30;60269;52.502;16.732;2023-03-01T01:17:12;-5.16;98.22
72320;SHT30;60269;52.502;16.732;2023-03-01T01:20:44;-5.15;98.77
72320;SHT30;60269;52.502;16.732;2023-03-01T01:24:17;-5.01;97.47
72320;SHT30;60269;52.502;16.732;2023-03-01T01:27:49;-4.93;96.28
72320;SHT30;60269;52.502;16.732;2023-03-01T01:31:23;-4.83;95.93
72320;SHT30;60269;52.502;16.732;2023-03-01T01:34:56;-4.91;96.21
72320;SHT30;60269;52.502;16.732;2023-03-01T01:38:28;-4.97;96.17
72320;SHT30;60269;52.502;16.732;2023-03-01T01:42:01;-4.80;96.07
72320;SHT30;60269;52.502;16.732;2023-03-01T01:45:35;-4.94;95.80
72320;SHT30;60269;52.502;16.732;2023-03-01T01:52:49;-4.87;96.27
72320;SHT30;60269;52.502;16.732;2023-03-01T01:56:23;-5.11;96.24
72320;SHT30;60269;52.502;16.732;2023-03-01T01:59:58;-5.07;96.75
72320;SHT30;60269;52.502;16.732;2023-03-01T02:03:33;-5.18;96.37
72320;SHT30;60269;52.502;16.732;2023-03-01T02:07:16;-5.29;98.26
72320;SHT30;60269;52.502;16.732;2023-03-01T02:10:51;-5.42;99.01
72320;SHT30;60269;52.502;16.732;2023-03-01T02:14:24;-5.46;99.32
72320;SHT30;60269;52.502;16.732;2023-03-01T02:17:56;-5.71;98.87
72320;SHT30;60269;52.502;16.732;2023-03-01T02:25:36;-5.43;98.97
72320;SHT30;60269;52.502;16.732;2023-03-01T02:29:09;-5.39;98.63
72320;SHT30;60269;52.502;16.732;2023-03-01T02:32:42;-5.26;98.95
72320;SHT30;60269;52.502;16.732;2023-03-01T02:36:18;-5.16;98.82
72320;SHT30;60269;52.502;16.732;2023-03-01T02:39:56;-5.01;98.24
72320;SHT30;60269;52.502;16.732;2023-03-01T02:43:31;-5.02;97.54
72320;SHT30;60269;52.502;16.732;2023-03-01T02:47:05;-5.01;98.05
72320;SHT30;60269;52.502;16.732;2023-03-01T02:58:13;-5.22;97.59
72320;SHT30;60269;52.502;16.732;2023-03-01T03:01:45;-5.22;97.72
72320;SHT30;60269;52.502;16.732;2023-03-01T03:05:21;-5.15;98.10
72320;SHT30;60269;52.502;16.732;2023-03-01T03:08:53;-5.14;98.38
72320;SHT30;60269;52.502;16.732;2023-03-01T03:12:25;-5.29;97.54
72320;SHT30;60269;52.502;16.732;2023-03-01T03:15:57;-5.26;97.77
72320;SHT30;60269;52.502;16.732;2023-03-01T03:19:29;-5.28;97.96
72320;SHT30;60269;52.502;16.732;2023-03-01T03:23:02;-5.23;97.78
72320;SHT30;60269;52.502;16.732;2023-03-01T03:26:34;-5.32;97.50
72320;SHT30;60269;52.502;16.732;2023-03-01T03:30:08;-5.23;97.37
72320;SHT30;60269;52.502;16.732;2023-03-01T03:33:40;-5.25;97.02
72320;SHT30;60269;52.502;16.732;2023-03-01T03:37:13;-5.26;97.12
72320;SHT30;60269;52.502;16.732;2023-03-01T03:41:06;-5.21;96.39
72320;SHT30;60269;52.502;16.732;2023-03-01T03:44:39;-5.16;96.05
72320;SHT30;60269;52.502;16.732;2023-03-01T03:48:11;-5.14;96.36
72320;SHT30;60269;52.502;16.732;2023-03-01T03:51:45;-5.07;96.40
72320;SHT30;60269;52.502;16.732;2023-03-01T03:55:18;-5.22;96.05
72320;SHT30;60269;52.502;16.732;2023-03-01T03:58:52;-5.31;96.81
72320;SHT30;60269;52.502;16.732;2023-03-01T04:02:24;-5.23;97.49
72320;SHT30;60269;52.502;16.732;2023-03-01T04:05:58;-5.28;97.14
72320;SHT30;60269;52.502;16.732;2023-03-01T04:09:30;-5.19;96.69
72320;SHT30;60269;52.502;16.732;2023-03-01T04:13:03;-5.14;96.94
72320;SHT30;60269;52.502;16.732;2023-03-01T04:16:35;-5.44;96.97
72320;SHT30;60269;52.502;16.732;2023-03-01T04:20:13;-5.74;99.07
72320;SHT30;60269;52.502;16.732;2023-03-01T04:23:45;-5.73;99.41
72320;SHT30;60269;52.502;16.732;2023-03-01T04:27:17;-5.69;99.31
72320;SHT30;60269;52.502;16.732;2023-03-01T04:30:49;-5.63;97.95
72320;SHT30;60269;52.502;16.732;2023-03-01T04:34:22;-5.67;97.14
72320;SHT30;60269;52.502;16.732;2023-03-01T04:37:55;-5.59;97.22
72320;SHT30;60269;52.502;16.732;2023-03-01T04:41:27;-5.63;98.36
72320;SHT30;60269;52.502;16.732;2023-03-01T04:45:00;-5.69;98.09
72320;SHT30;60269;52.502;16.732;2023-03-01T04:48:32;-5.89;99.44
72320;SHT30;60269;52.502;16.732;2023-03-01T04:52:04;-6.26;99.78
72320;SHT30;60269;52.502;16.732;2023-03-01T04:55:37;-6.50;99.99
72320;SHT30;60269;52.502;16.732;2023-03-01T04:59:11;-6.58;99.99
72320;SHT30;60269;52.502;16.732;2023-03-01T05:02:44;-6.53;99.99
72320;SHT30;60269;52.502;16.732;2023-03-01T05:06:17;-6.28;99.99
72320;SHT30;60269;52.502;16.732;2023-03-01T05:09:50;-6.21;99.99
72320;SHT30;60269;52.502;16.732;2023-03-01T05:13:27;-5.93;99.99
72320;SHT30;60269;52.502;16.732;2023-03-01T05:17:02;-5.97;99.99
72320;SHT30;60269;52.502;16.732;2023-03-01T05:20:37;-6.12;99.99
72320;SHT30;60269;52.502;16.732;2023-03-01T05:24:09;-6.05;99.99
72320;SHT30;60269;52.502;16.732;2023-03-01T05:27:43;-6.08;99.99
72320;SHT30;60269;52.502;16.732;2023-03-01T05:31:15;-6.15;99.99
72320;SHT30;60269;52.502;16.732;2023-03-01T05:34:47;-6.17;99.99
72320;SHT30;60269;52.502;16.732;2023-03-01T05:38:20;-6.33;99.99
72320;SHT30;60269;52.502;16.732;2023-03-01T05:41:54;-6.50;99.79
72320;SHT30;60269;52.502;16.732;2023-03-01T05:45:27;-5.93;98.74
72320;SHT30;60269;52.502;16.732;2023-03-01T05:48:59;-5.63;97.81
72320;SHT30;60269;52.502;16.732;2023-03-01T05:52:31;-5.67;99.32
72320;SHT30;60269;52.502;16.732;2023-03-01T05:56:04;-5.62;99.57
72320;SHT30;60269;52.502;16.732;2023-03-01T05:59:36;-5.67;99.04
72320;SHT30;60269;52.502;16.732;2023-03-01T06:03:10;-5.64;98.93
72320;SHT30;60269;52.502;16.732;2023-03-01T06:06:42;-5.59;98.81
72320;SHT30;60269;52.502;16.732;2023-03-01T06:10:17;-5.59;99.00
72320;SHT30;60269;52.502;16.732;2023-03-01T06:13:49;-5.66;98.93
72320;SHT30;60269;52.502;16.732;2023-03-01T06:17:22;-5.40;98.15
72320;SHT30;60269;52.502;16.732;2023-03-01T06:20:55;-5.38;98.05
72320;SHT30;60269;52.502;16.732;2023-03-01T06:24:27;-5.07;98.15
72320;SHT30;60269;52.502;16.732;2023-03-01T06:28:00;-4.83;97.43
72320;SHT30;60269;52.502;16.732;2023-03-01T06:31:32;-4.66;97.16
72320;SHT30;60269;52.502;16.732;2023-03-01T06:35:05;-4.45;96.63
72320;SHT30;60269;52.502;16.732;2023-03-01T06:38:37;-4.26;96.11
72320;SHT30;60269;52.502;16.732;2023-03-01T06:42:09;-4.18;95.85
72320;SHT30;60269;52.502;16.732;2023-03-01T06:45:42;-3.94;95.02
72320;SHT30;60269;52.502;16.732;2023-03-01T06:49:15;-3.85;94.62
72320;SHT30;60269;52.502;16.732;2023-03-01T06:52:47;-3.84;94.67
72320;SHT30;60269;52.502;16.732;2023-03-01T06:56:19;-3.67;94.51
72320;SHT30;60269;52.502;16.732;2023-03-01T06:59:52;-3.54;94.27
72320;SHT30;60269;52.502;16.732;2023-03-01T07:03:24;-3.47;94.38
72320;SHT30;60269;52.502;16.732;2023-03-01T07:06:58;-3.39;94.18
72320;SHT30;60269;52.502;16.732;2023-03-01T07:10:31;-3.32;94.25
72320;SHT30;60269;52.502;16.732;2023-03-01T07:14:03;-2.95;94.02
72320;SHT30;60269;52.502;16.732;2023-03-01T07:17:35;-2.60;93.57
72320;SHT30;60269;52.502;16.732;2023-03-01T07:21:08;-2.49;92.92
72320;SHT30;60269;52.502;16.732;2023-03-01T07:24:42;-2.13;93.15
72320;SHT30;60269;52.502;16.732;2023-03-01T07:28:14;-1.57;92.85
72320;SHT30;60269;52.502;16.732;2023-03-01T07:31:46;-1.39;90.90
72320;SHT30;60269;52.502;16.732;2023-03-01T07:35:19;-1.12;91.18
72320;SHT30;60269;52.502;16.732;2023-03-01T07:38:51;-0.78;91.13
72320;SHT30;60269;52.502;16.732;2023-03-01T07:42:23;-0.75;90.63
72320;SHT30;60269;52.502;16.732;2023-03-01T07:45:58;-0.51;89.96
72320;SHT30;60269;52.502;16.732;2023-03-01T07:49:30;-0.09;90.50
72320;SHT30;60269;52.502;16.732;2023-03-01T07:53:02;0.25;90.07
72320;SHT30;60269;52.502;16.732;2023-03-01T07:56:35;0.60;88.77
72320;SHT30;60269;52.502;16.732;2023-03-01T08:00:10;0.76;86.99
72320;SHT30;60269;52.502;16.732;2023-03-01T08:03:43;1.07;87.59
72320;SHT30;60269;52.502;16.732;2023-03-01T08:07:15;1.24;86.15
72320;SHT30;60269;52.502;16.732;2023-03-01T08:10:47;1.32;85.83
72320;SHT30;60269;52.502;16.732;2023-03-01T08:14:19;1.46;84.86
72320;SHT30;60269;52.502;16.732;2023-03-01T08:17:51;1.65;85.99
72320;SHT30;60269;52.502;16.732;2023-03-01T08:21:23;1.56;84.44
72320;SHT30;60269;52.502;16.732;2023-03-01T08:24:55;1.66;84.95
72320;SHT30;60269;52.502;16.732;2023-03-01T08:28:27;1.76;84.97
72320;SHT30;60269;52.502;16.732;2023-03-01T08:31:59;1.73;84.10
72320;SHT30;60269;52.502;16.732;2023-03-01T08:35:32;2.07;84.04
72320;SHT30;60269;52.502;16.732;2023-03-01T08:39:05;2.25;84.18
72320;SHT30;60269;52.502;16.732;2023-03-01T08:42:37;2.54;83.89
72320;SHT30;60269;52.502;16.732;2023-03-01T08:46:10;2.65;80.99
72320;SHT30;60269;52.502;16.732;2023-03-01T08:49:42;2.86;77.30
72320;SHT30;60269;52.502;16.732;2023-03-01T08:53:14;2.86;74.71
72320;SHT30;60269;52.502;16.732;2023-03-01T08:56:47;2.88;75.77
72320;SHT30;60269;52.502;16.732;2023-03-01T09:00:20;2.88;75.78
72320;SHT30;60269;52.502;16.732;2023-03-01T09:03:52;2.97;74.63
72320;SHT30;60269;52.502;16.732;2023-03-01T09:07:26;3.16;74.46
72320;SHT30;60269;52.502;16.732;2023-03-01T09:11:02;3.28;71.65
72320;SHT30;60269;52.502;16.732;2023-03-01T09:14:34;3.60;70.31
72320;SHT30;60269;52.502;16.732;2023-03-01T09:18:10;3.83;68.80
72320;SHT30;60269;52.502;16.732;2023-03-01T09:21:41;4.21;68.29
72320;SHT30;60269;52.502;16.732;2023-03-01T09:25:24;4.29;67.05
72320;SHT30;60269;52.502;16.732;2023-03-01T09:28:56;4.50;67.54
72320;SHT30;60269;52.502;16.732;2023-03-01T09:32:30;4.84;67.88
72320;SHT30;60269;52.502;16.732;2023-03-01T09:36:06;5.20;65.39
72320;SHT30;60269;52.502;16.732;2023-03-01T09:39:38;5.47;63.33
72320;SHT30;60269;52.502;16.732;2023-03-01T09:47:26;5.95;62.27
72320;SHT30;60269;52.502;16.732;2023-03-01T09:51:03;6.23;60.20
72320;SHT30;60269;52.502;16.732;2023-03-01T09:54:38;6.26;59.92
72320;SHT30;60269;52.502;16.732;2023-03-01T09:58:31;6.39;59.99
72320;SHT30;60269;52.502;16.732;2023-03-01T10:02:27;6.30;59.37
72320;SHT30;60269;52.502;16.732;2023-03-01T10:06:21;6.58;59.14
72320;SHT30;60269;52.502;16.732;2023-03-01T10:10:08;7.01;56.31
72320;SHT30;60269;52.502;16.732;2023-03-01T10:14:03;7.08;56.79
72320;SHT30;60269;52.502;16.732;2023-03-01T10:17:46;7.46;55.96
72320;SHT30;60269;52.502;16.732;2023-03-01T10:21:20;7.81;53.98
72320;SHT30;60269;52.502;16.732;2023-03-01T10:24:53;7.31;55.96
72320;SHT30;60269;52.502;16.732;2023-03-01T10:32:08;7.63;56.26
72320;SHT30;60269;52.502;16.732;2023-03-01T10:35:41;7.09;57.04
72320;SHT30;60269;52.502;16.732;2023-03-01T10:39:20;7.32;56.98
72320;SHT30;60269;52.502;16.732;2023-03-01T10:42:53;7.74;55.87
72320;SHT30;60269;52.502;16.732;2023-03-01T10:46:28;7.38;54.51
72320;SHT30;60269;52.502;16.732;2023-03-01T10:50:05;7.46;56.37
72320;SHT30;60269;52.502;16.732;2023-03-01T10:53:41;7.43;54.67
72320;SHT30;60269;52.502;16.732;2023-03-01T10:57:28;8.21;53.68
72320;SHT30;60269;52.502;16.732;2023-03-01T11:04:34;7.91;52.01
72320;SHT30;60269;52.502;16.732;2023-03-01T11:08:06;8.56;52.30
72320;SHT30;60269;52.502;16.732;2023-03-01T11:11:38;8.45;51.11
72320;SHT30;60269;52.502;16.732;2023-03-01T11:15:27;9.06;49.53
72320;SHT30;60269;52.502;16.732;2023-03-01T11:23:02;9.68;48.56
72320;SHT30;60269;52.502;16.732;2023-03-01T11:26:45;9.68;48.14
72320;SHT30;60269;52.502;16.732;2023-03-01T11:30:22;9.63;48.38
72320;SHT30;60269;52.502;16.732;2023-03-01T11:34:02;9.35;49.13
72320;SHT30;60269;52.502;16.732;2023-03-01T11:37:44;10.03;47.22
72320;SHT30;60269;52.502;16.732;2023-03-01T11:41:29;8.90;50.14
72320;SHT30;60269;52.502;16.732;2023-03-01T11:45:08;8.89;51.00
72320;SHT30;60269;52.502;16.732;2023-03-01T11:48:52;9.30;48.69
72320;SHT30;60269;52.502;16.732;2023-03-01T11:52:42;9.27;48.64
72320;SHT30;60269;52.502;16.732;2023-03-01T12:31:29;10.99;45.46
72320;SHT30;60269;52.502;16.732;2023-03-01T12:35:40;10.57;46.45
72320;SHT30;60269;52.502;16.732;2023-03-01T12:39:51;10.06;47.88
72320;SHT30;60269;52.502;16.732;2023-03-01T12:43:50;10.95;46.03
72320;SHT30;60269;52.502;16.732;2023-03-01T12:51:31;11.02;46.41
72320;SHT30;60269;52.502;16.732;2023-03-01T12:55:17;10.99;46.32
72320;SHT30;60269;52.502;16.732;2023-03-01T13:02:49;11.73;44.63
72320;SHT30;60269;52.502;16.732;2023-03-01T13:10:51;12.08;43.89
72320;SHT30;60269;52.502;16.732;2023-03-01T13:18:02;10.76;46.83
72320;SHT30;60269;52.502;16.732;2023-03-01T13:21:35;11.40;45.88
72320;SHT30;60269;52.502;16.732;2023-03-01T13:25:18;11.78;44.64
72320;SHT30;60269;52.502;16.732;2023-03-01T13:28:53;11.66;44.77
72320;SHT30;60269;52.502;16.732;2023-03-01T13:32:29;11.26;46.03
72320;SHT30;60269;52.502;16.732;2023-03-01T13:40:08;11.22;47.23
72320;SHT30;60269;52.502;16.732;2023-03-01T13:43:57;11.49;45.88
72320;SHT30;60269;52.502;16.732;2023-03-01T13:47:29;11.16;46.28
72320;SHT30;60269;52.502;16.732;2023-03-01T13:51:04;11.64;45.41
72320;SHT30;60269;52.502;16.732;2023-03-01T13:54:38;11.36;45.67
72320;SHT30;60269;52.502;16.732;2023-03-01T13:58:32;11.63;46.19
72320;SHT30;60269;52.502;16.732;2023-03-01T14:02:11;11.57;46.70
72320;SHT30;60269;52.502;16.732;2023-03-01T14:06:08;10.99;46.80
72320;SHT30;60269;52.502;16.732;2023-03-01T14:09:54;10.91;47.74
72320;SHT30;60269;52.502;16.732;2023-03-01T14:17:33;11.20;46.52
72320;SHT30;60269;52.502;16.732;2023-03-01T14:21:09;11.08;45.88
72320;SHT30;60269;52.502;16.732;2023-03-01T14:24:50;11.43;45.38
72320;SHT30;60269;52.502;16.732;2023-03-01T14:28:26;11.15;46.81
72320;SHT30;60269;52.502;16.732;2023-03-01T14:32:20;11.44;46.82
72320;SHT30;60269;52.502;16.732;2023-03-01T14:39:32;11.02;47.80
72320;SHT30;60269;52.502;16.732;2023-03-01T14:43:11;10.74;48.06
72320;SHT30;60269;52.502;16.732;2023-03-01T14:46:44;10.67;48.12
72320;SHT30;60269;52.502;16.732;2023-03-01T14:50:24;11.18;47.81
72320;SHT30;60269;52.502;16.732;2023-03-01T14:53:56;11.03;48.31
72320;SHT30;60269;52.502;16.732;2023-03-01T14:57:29;10.48;49.32
72320;SHT30;60269;52.502;16.732;2023-03-01T15:01:03;10.29;49.63
72320;SHT30;60269;52.502;16.732;2023-03-01T15:04:37;10.62;48.89
72320;SHT30;60269;52.502;16.732;2023-03-01T15:08:18;10.13;50.68
72320;SHT30;60269;52.502;16.732;2023-03-01T15:11:50;10.40;49.58
72320;SHT30;60269;52.502;16.732;2023-03-01T15:19:04;10.30;50.09
72320;SHT30;60269;52.502;16.732;2023-03-01T15:22:37;10.34;50.65
72320;SHT30;60269;52.502;16.732;2023-03-01T15:26:28;9.99;50.98
72320;SHT30;60269;52.502;16.732;2023-03-01T15:30:02;9.95;51.41
72320;SHT30;60269;52.502;16.732;2023-03-01T15:33:37;9.48;52.75
72320;SHT30;60269;52.502;16.732;2023-03-01T15:37:39;9.32;53.70
72320;SHT30;60269;52.502;16.732;2023-03-01T15:41:45;9.08;54.15
72320;SHT30;60269;52.502;16.732;2023-03-01T15:45:23;9.13;54.60
72320;SHT30;60269;52.502;16.732;2023-03-01T15:49:21;9.10;55.01
72320;SHT30;60269;52.502;16.732;2023-03-01T15:52:58;8.75;55.82
72320;SHT30;60269;52.502;16.732;2023-03-01T15:56:30;8.25;57.36
72320;SHT30;60269;52.502;16.732;2023-03-01T16:00:04;8.08;58.14
72320;SHT30;60269;52.502;16.732;2023-03-01T16:03:43;7.98;58.56
72320;SHT30;60269;52.502;16.732;2023-03-01T16:07:17;7.39;60.05
72320;SHT30;60269;52.502;16.732;2023-03-01T16:10:49;7.07;61.35
72320;SHT30;60269;52.502;16.732;2023-03-01T16:14:23;6.70;62.15
72320;SHT30;60269;52.502;16.732;2023-03-01T16:17:55;6.30;63.35
72320;SHT30;60269;52.502;16.732;2023-03-01T16:21:27;5.78;65.18
72320;SHT30;60269;52.502;16.732;2023-03-01T16:25:00;5.32;66.78
72320;SHT30;60269;52.502;16.732;2023-03-01T16:28:34;4.84;68.59
72320;SHT30;60269;52.502;16.732;2023-03-01T16:32:07;4.56;69.46
72320;SHT30;60269;52.502;16.732;2023-03-01T16:35:39;4.33;69.81
72320;SHT30;60269;52.502;16.732;2023-03-01T16:39:12;4.24;70.48
72320;SHT30;60269;52.502;16.732;2023-03-01T16:42:44;3.96;71.21
72320;SHT30;60269;52.502;16.732;2023-03-01T16:46:25;3.96;71.46
72320;SHT30;60269;52.502;16.732;2023-03-01T16:49:57;3.79;72.47
72320;SHT30;60269;52.502;16.732;2023-03-01T16:53:29;3.68;72.96
72320;SHT30;60269;52.502;16.732;2023-03-01T16:57:02;3.51;73.89
72320;SHT30;60269;52.502;16.732;2023-03-01T17:00:34;3.31;74.28
72320;SHT30;60269;52.502;16.732;2023-03-01T17:04:11;3.20;75.14
72320;SHT30;60269;52.502;16.732;2023-03-01T17:07:43;3.19;75.03
72320;SHT30;60269;52.502;16.732;2023-03-01T17:11:18;2.97;75.70
72320;SHT30;60269;52.502;16.732;2023-03-01T17:14:50;3.03;75.63
72320;SHT30;60269;52.502;16.732;2023-03-01T17:18:22;2.92;75.59
72320;SHT30;60269;52.502;16.732;2023-03-01T17:21:57;2.89;76.26
72320;SHT30;60269;52.502;16.732;2023-03-01T17:25:31;2.89;76.46
72320;SHT30;60269;52.502;16.732;2023-03-01T17:29:08;2.78;76.67
72320;SHT30;60269;52.502;16.732;2023-03-01T17:32:40;2.73;76.92
72320;SHT30;60269;52.502;16.732;2023-03-01T17:36:12;2.75;76.49
72320;SHT30;60269;52.502;16.732;2023-03-01T17:39:44;2.69;76.82
72320;SHT30;60269;52.502;16.732;2023-03-01T17:43:17;2.71;76.58
72320;SHT30;60269;52.502;16.732;2023-03-01T17:46:49;2.56;77.34
72320;SHT30;60269;52.502;16.732;2023-03-01T17:50:21;2.61;77.00
72320;SHT30;60269;52.502;16.732;2023-03-01T17:53:53;2.66;76.97
72320;SHT30;60269;52.502;16.732;2023-03-01T17:57:25;2.62;76.98
72320;SHT30;60269;52.502;16.732;2023-03-01T18:01:26;2.38;77.71
72320;SHT30;60269;52.502;16.732;2023-03-01T18:04:58;2.33;78.03
72320;SHT30;60269;52.502;16.732;2023-03-01T18:08:30;2.18;78.32
72320;SHT30;60269;52.502;16.732;2023-03-01T18:12:02;2.14;78.37
72320;SHT30;60269;52.502;16.732;2023-03-01T18:15:35;2.03;78.96
72320;SHT30;60269;52.502;16.732;2023-03-01T18:19:09;1.97;79.16
72320;SHT30;60269;52.502;16.732;2023-03-01T18:22:42;1.77;79.92
72320;SHT30;60269;52.502;16.732;2023-03-01T18:26:14;1.63;80.94
72320;SHT30;60269;52.502;16.732;2023-03-01T18:29:48;1.55;81.49
72320;SHT30;60269;52.502;16.732;2023-03-01T18:33:20;1.32;82.25
72320;SHT30;60269;52.502;16.732;2023-03-01T18:36:52;1.28;82.62
72320;SHT30;60269;52.502;16.732;2023-03-01T18:40:41;1.31;82.36
72320;SHT30;60269;52.502;16.732;2023-03-01T18:44:16;1.20;82.87
72320;SHT30;60269;52.502;16.732;2023-03-01T18:47:48;1.09;83.22
72320;SHT30;60269;52.502;16.732;2023-03-01T18:51:24;0.81;84.01
72320;SHT30;60269;52.502;16.732;2023-03-01T18:54:56;0.79;84.79
72320;SHT30;60269;52.502;16.732;2023-03-01T18:58:29;0.69;85.06
72320;SHT30;60269;52.502;16.732;2023-03-01T19:02:02;0.58;85.30
72320;SHT30;60269;52.502;16.732;2023-03-01T19:05:34;0.49;85.96
72320;SHT30;60269;52.502;16.732;2023-03-01T19:09:07;0.50;85.63
72320;SHT30;60269;52.502;16.732;2023-03-01T19:12:39;0.46;85.86
72320;SHT30;60269;52.502;16.732;2023-03-01T19:16:17;0.42;86.26
72320;SHT30;60269;52.502;16.732;2023-03-01T19:19:59;0.48;85.88
72320;SHT30;60269;52.502;16.732;2023-03-01T19:23:36;0.56;85.40
72320;SHT30;60269;52.502;16.732;2023-03-01T19:27:19;0.63;85.06
72320;SHT30;60269;52.502;16.732;2023-03-01T19:30:59;0.77;84.14
72320;SHT30;60269;52.502;16.732;2023-03-01T19:34:31;0.79;84.25
72320;SHT30;60269;52.502;16.732;2023-03-01T19:38:03;0.65;84.57
72320;SHT30;60269;52.502;16.732;2023-03-01T19:41:35;0.50;85.41
72320;SHT30;60269;52.502;16.732;2023-03-01T19:45:08;0.44;85.61
72320;SHT30;60269;52.502;16.732;2023-03-01T19:48:44;0.44;85.82
72320;SHT30;60269;52.502;16.732;2023-03-01T19:52:15;0.28;86.22
72320;SHT30;60269;52.502;16.732;2023-03-01T19:55:48;0.14;86.80
72320;SHT30;60269;52.502;16.732;2023-03-01T19:59:24;0.00;87.81
72320;SHT30;60269;52.502;16.732;2023-03-01T20:02:56;-0.26;88.84
72320;SHT30;60269;52.502;16.732;2023-03-01T20:06:28;-0.65;90.09
72320;SHT30;60269;52.502;16.732;2023-03-01T20:10:02;-0.89;91.31
72320;SHT30;60269;52.502;16.732;2023-03-01T20:13:34;-1.26;92.88
72320;SHT30;60269;52.502;16.732;2023-03-01T20:17:07;-1.39;94.25
72320;SHT30;60269;52.502;16.732;2023-03-01T20:20:39;-1.30;94.07
72320;SHT30;60269;52.502;16.732;2023-03-01T20:24:11;-1.05;93.19
72320;SHT30;60269;52.502;16.732;2023-03-01T20:27:44;-0.95;92.71
72320;SHT30;60269;52.502;16.732;2023-03-01T20:31:20;-0.89;92.18
72320;SHT30;60269;52.502;16.732;2023-03-01T20:34:53;-0.82;92.00
72320;SHT30;60269;52.502;16.732;2023-03-01T20:38:28;-0.72;91.89
72320;SHT30;60269;52.502;16.732;2023-03-01T20:42:00;-0.82;91.90
72320;SHT30;60269;52.502;16.732;2023-03-01T20:45:32;-0.93;92.01
72320;SHT30;60269;52.502;16.732;2023-03-01T20:49:05;-0.82;91.90
72320;SHT30;60269;52.502;16.732;2023-03-01T20:52:38;-0.88;92.03
72320;SHT30;60269;52.502;16.732;2023-03-01T20:56:19;-1.08;92.36
72320;SHT30;60269;52.502;16.732;2023-03-01T20:59:52;-1.03;92.57
72320;SHT30;60269;52.502;16.732;2023-03-01T21:03:24;-0.81;92.18
72320;SHT30;60269;52.502;16.732;2023-03-01T21:06:56;-0.75;91.63
72320;SHT30;60269;52.502;16.732;2023-03-01T21:10:29;-0.71;91.15
72320;SHT30;60269;52.502;16.732;2023-03-01T21:14:01;-0.64;91.22
72320;SHT30;60269;52.502;16.732;2023-03-01T21:17:36;-0.68;91.22
72320;SHT30;60269;52.502;16.732;2023-03-01T21:21:10;-0.57;91.38
72320;SHT30;60269;52.502;16.732;2023-03-01T21:24:43;-0.47;90.97
72320;SHT30;60269;52.502;16.732;2023-03-01T21:28:15;-0.58;91.13
72320;SHT30;60269;52.502;16.732;2023-03-01T21:31:47;-0.67;91.32
72320;SHT30;60269;52.502;16.732;2023-03-01T21:35:19;-0.68;91.46
72320;SHT30;60269;52.502;16.732;2023-03-01T21:38:52;-0.64;91.46
72320;SHT30;60269;52.502;16.732;2023-03-01T21:42:25;-0.75;91.44
72320;SHT30;60269;52.502;16.732;2023-03-01T21:46:00;-0.87;91.74
72320;SHT30;60269;52.502;16.732;2023-03-01T21:49:33;-0.85;92.27
72320;SHT30;60269;52.502;16.732;2023-03-01T21:53:05;-0.98;92.50
72320;SHT30;60269;52.502;16.732;2023-03-01T21:56:37;-0.91;92.95
72320;SHT30;60269;52.502;16.732;2023-03-01T22:00:10;-0.89;92.75
72320;SHT30;60269;52.502;16.732;2023-03-01T22:03:44;-1.02;92.79
72320;SHT30;60269;52.502;16.732;2023-03-01T22:07:16;-1.16;93.19
72320;SHT30;60269;52.502;16.732;2023-03-01T22:10:52;-1.23;93.62
72320;SHT30;60269;52.502;16.732;2023-03-01T22:14:24;-1.19;93.58
72320;SHT30;60269;52.502;16.732;2023-03-01T22:17:57;-1.19;93.78
72320;SHT30;60269;52.502;16.732;2023-03-01T22:21:29;-1.03;93.67
72320;SHT30;60269;52.502;16.732;2023-03-01T22:25:01;-1.03;93.67
72320;SHT30;60269;52.502;16.732;2023-03-01T22:28:33;-1.05;94.03
72320;SHT30;60269;52.502;16.732;2023-03-01T22:32:05;-1.08;94.05
72320;SHT30;60269;52.502;16.732;2023-03-01T22:35:41;-1.25;94.24
72320;SHT30;60269;52.502;16.732;2023-03-01T22:39:15;-1.29;94.61
72320;SHT30;60269;52.502;16.732;2023-03-01T22:42:48;-1.25;94.71
72320;SHT30;60269;52.502;16.732;2023-03-01T22:46:20;-1.30;94.53
72320;SHT30;60269;52.502;16.732;2023-03-01T22:49:55;-1.39;94.52
72320;SHT30;60269;52.502;16.732;2023-03-01T22:53:27;-1.42;94.78
72320;SHT30;60269;52.502;16.732;2023-03-01T22:56:59;-1.36;95.16
72320;SHT30;60269;52.502;16.732;2023-03-01T23:00:31;-1.42;95.16
72320;SHT30;60269;52.502;16.732;2023-03-01T23:04:03;-1.58;94.93
72320;SHT30;60269;52.502;16.732;2023-03-01T23:07:36;-1.54;95.38
72320;SHT30;60269;52.502;16.732;2023-03-01T23:11:11;-1.79;96.08
72320;SHT30;60269;52.502;16.732;2023-03-01T23:14:43;-1.89;95.51
72320;SHT30;60269;52.502;16.732;2023-03-01T23:18:16;-2.01;96.71
72320;SHT30;60269;52.502;16.732;2023-03-01T23:21:47;-1.89;96.05
72320;SHT30;60269;52.502;16.732;2023-03-01T23:25:21;-1.94;95.55
72320;SHT30;60269;52.502;16.732;2023-03-01T23:28:54;-2.25;96.29
72320;SHT30;60269;52.502;16.732;2023-03-01T23:32:27;-2.30;96.01
72320;SHT30;60269;52.502;16.732;2023-03-01T23:35:59;-2.28;96.16
72320;SHT30;60269;52.502;16.732;2023-03-01T23:39:33;-2.32;96.51
72320;SHT30;60269;52.502;16.732;2023-03-01T23:43:05;-2.47;98.00
72320;SHT30;60269;52.502;16.732;2023-03-01T23:46:37;-2.61;98.15
72320;SHT30;60269;52.502;16.732;2023-03-01T23:50:10;-2.71;98.50
72320;SHT30;60269;52.502;16.732;2023-03-01T23:53:43;-2.84;98.23
72320;SHT30;60269;52.502;16.732;2023-03-01T23:57:25;-2.84;97.79
